createdAt,value
2022-12-23T00:00:43.639Z,98439.72
2022-12-23T00:03:10.953Z,98462.56
2022-12-23T00:05:40.199Z,98453.44
2022-12-23T00:08:08.534Z,98451.44
2022-12-23T00:10:39.691Z,98449.91
2022-12-23T00:13:25.920Z,98456.19
2022-12-23T00:16:14.038Z,98493.97
2022-12-23T00:18:42.330Z,98467.59
2022-12-23T00:21:13.437Z,98473.84
2022-12-23T00:23:44.532Z,98471.47
2022-12-23T00:26:26.617Z,98464.34
2022-12-23T00:28:58.153Z,98446.59
2022-12-23T00:31:26.016Z,98464.72
2022-12-23T00:33:54.525Z,98482.84
2022-12-23T00:36:28.261Z,98474.78
2022-12-23T00:39:15.735Z,98459.53
2022-12-23T00:42:01.759Z,98457.59
2022-12-23T00:44:28.967Z,98440.31
2022-12-23T00:46:56.274Z,98481.16
2022-12-23T00:49:42.133Z,98465.38
2022-12-23T00:52:15.915Z,98474.91
2022-12-23T00:54:43.034Z,98493.00
2022-12-23T00:57:11.002Z,98455.16
2022-12-23T00:59:38.256Z,98463.78
2022-12-23T01:02:23.881Z,98479.59
2022-12-23T01:05:09.286Z,98467.34
2022-12-23T01:07:36.450Z,98459.88
2022-12-23T01:10:04.057Z,98469.34
2022-12-23T01:12:31.230Z,98455.16
2022-12-23T01:14:58.221Z,98496.13
2022-12-23T01:17:25.436Z,98504.34
2022-12-23T01:19:52.436Z,98479.53
2022-12-23T01:22:19.585Z,98503.59
2022-12-23T01:24:46.731Z,98514.22
2022-12-23T01:27:13.776Z,98507.88
2022-12-23T01:29:41.144Z,98511.09
2022-12-23T01:32:08.207Z,98522.88
2022-12-23T01:34:37.528Z,98532.38
2022-12-23T01:37:05.784Z,98511.44
2022-12-23T01:39:33.253Z,98484.31
2022-12-23T01:42:19.299Z,98478.81
2022-12-23T01:44:56.024Z,98528.31
2022-12-23T01:47:44.817Z,98501.66
2022-12-23T01:50:42.138Z,98529.13
2022-12-23T01:53:23.190Z,98508.72
2022-12-23T01:56:04.715Z,98498.53
2022-12-23T01:58:40.330Z,98519.03
2022-12-23T02:01:26.277Z,98530.34
2022-12-23T02:03:58.741Z,98512.19
2022-12-23T02:06:46.058Z,98517.34
2022-12-23T02:09:19.554Z,98529.16
2022-12-23T02:12:24.274Z,98558.38
2022-12-23T02:15:16.112Z,98548.88
2022-12-23T02:17:58.054Z,98560.31
2022-12-23T02:20:54.983Z,98559.09
2022-12-23T02:23:52.380Z,98566.94
2022-12-23T02:27:06.071Z,98547.72
2022-12-23T02:30:40.871Z,98566.16
2022-12-23T02:33:31.889Z,98550.38
2022-12-23T02:36:27.642Z,98583.84
2022-12-23T02:39:14.509Z,98582.56
2022-12-23T02:42:25.988Z,98526.75
2022-12-23T02:45:17.498Z,98533.06
2022-12-23T02:48:02.654Z,98584.97
2022-12-23T02:50:37.639Z,98576.31
2022-12-23T02:53:18.042Z,98557.47
2022-12-23T02:55:48.263Z,98554.34
2022-12-23T02:58:20.123Z,98564.56
2022-12-23T03:00:48.314Z,98604.38
2022-12-23T03:03:17.530Z,98592.06
2022-12-23T03:05:47.052Z,98575.56
2022-12-23T03:08:26.166Z,98573.63
2022-12-23T03:11:15.565Z,98573.31
2022-12-23T03:14:03.649Z,98569.28
2022-12-23T03:17:13.752Z,98599.97
2022-12-23T03:20:25.123Z,98611.00
2022-12-23T03:23:11.423Z,98564.50
2022-12-23T03:25:59.331Z,98561.38
2022-12-23T03:28:39.588Z,98567.53
2022-12-23T03:31:15.228Z,98582.19
2022-12-23T03:33:48.572Z,98561.34
2022-12-23T03:36:24.115Z,98531.09
2022-12-23T03:38:54.128Z,98580.72
2022-12-23T03:41:30.101Z,98582.69
2022-12-23T03:44:07.067Z,98581.88
2022-12-23T03:46:41.905Z,98584.25
2022-12-23T03:49:19.742Z,98603.84
2022-12-23T03:51:59.405Z,98571.22
2022-12-23T03:54:55.150Z,98616.94
2022-12-23T03:57:41.155Z,98620.34
2022-12-23T04:00:09.616Z,98570.75
2022-12-23T04:03:09.887Z,98577.06
2022-12-23T04:05:40.467Z,98610.50
2022-12-23T04:08:30.259Z,98550.19
2022-12-23T04:10:58.425Z,98571.91
2022-12-23T04:13:28.199Z,98576.66
2022-12-23T04:15:57.190Z,98584.22
2022-12-23T04:18:25.036Z,98634.59
2022-12-23T04:20:52.176Z,98598.31
2022-12-23T04:23:19.132Z,98638.47
2022-12-23T04:25:46.422Z,98612.09
2022-12-23T04:28:13.406Z,98588.09
2022-12-23T04:30:40.648Z,98593.63
2022-12-23T04:33:07.587Z,98617.28
2022-12-23T04:35:34.683Z,98613.31
2022-12-23T04:38:01.841Z,98586.50
2022-12-23T04:40:28.778Z,98605.81
2022-12-23T04:42:55.679Z,98618.84
2022-12-23T04:45:22.997Z,98593.63
2022-12-23T04:47:49.937Z,98612.47
2022-12-23T04:50:17.570Z,98606.56
2022-12-23T04:52:44.772Z,98568.75
2022-12-23T04:55:12.368Z,98577.47
2022-12-23T04:57:39.984Z,98601.88
2022-12-23T05:00:08.264Z,98612.47
2022-12-23T05:02:35.266Z,98586.56
2022-12-23T05:05:02.257Z,98607.84
2022-12-23T05:07:29.158Z,98612.53
2022-12-23T05:10:01.890Z,98615.38
2022-12-23T05:12:30.540Z,98600.78
2022-12-23T05:14:57.677Z,98616.53
2022-12-23T05:17:24.651Z,98633.97
2022-12-23T05:19:52.058Z,98638.25
2022-12-23T05:22:19.071Z,98628.00
2022-12-23T05:24:46.861Z,98607.97
2022-12-23T05:27:13.784Z,98606.84
2022-12-23T05:29:41.257Z,98601.66
2022-12-23T05:32:08.363Z,98593.78
2022-12-23T05:34:35.727Z,98600.03
2022-12-23T05:37:02.634Z,98609.06
2022-12-23T05:39:29.953Z,98629.94
2022-12-23T05:41:56.925Z,98609.84
2022-12-23T05:44:24.199Z,98600.84
2022-12-23T05:46:51.179Z,98614.59
2022-12-23T05:49:18.144Z,98601.56
2022-12-23T05:51:45.065Z,98626.06
2022-12-23T05:54:12.408Z,98620.50
2022-12-23T05:56:39.445Z,98642.63
2022-12-23T05:59:06.749Z,98641.75
2022-12-23T06:01:33.814Z,98590.53
2022-12-23T06:04:01.185Z,98589.03
2022-12-23T06:06:28.738Z,98621.72
2022-12-23T06:08:59.838Z,98605.56
2022-12-23T06:11:27.808Z,98601.97
2022-12-23T06:13:54.920Z,98594.44
2022-12-23T06:16:21.940Z,98584.13
2022-12-23T06:18:49.254Z,98567.69
2022-12-23T06:21:16.195Z,98564.19
2022-12-23T06:23:43.146Z,98548.13
2022-12-23T06:26:10.089Z,98589.44
2022-12-23T06:28:37.205Z,98596.56
2022-12-23T06:31:04.408Z,98580.41
2022-12-23T06:33:31.515Z,98605.94
2022-12-23T06:35:58.600Z,98596.09
2022-12-23T06:38:25.823Z,98568.94
2022-12-23T06:40:52.771Z,98612.25
2022-12-23T06:43:19.918Z,98594.53
2022-12-23T06:45:48.500Z,98593.75
2022-12-23T06:48:16.935Z,98598.84
2022-12-23T06:50:44.070Z,98588.97
2022-12-23T06:53:11.236Z,98592.91
2022-12-23T06:55:38.453Z,98638.63
2022-12-23T06:58:06.257Z,98586.25
2022-12-23T07:00:33.166Z,98648.47
2022-12-23T07:03:00.459Z,98641.81
2022-12-23T07:05:33.280Z,98653.56
2022-12-23T07:08:03.819Z,98652.78
2022-12-23T07:10:30.788Z,98659.03
2022-12-23T07:12:57.783Z,98646.06
2022-12-23T07:15:24.781Z,98621.22
2022-12-23T07:17:51.923Z,98674.03
2022-12-23T07:20:18.906Z,98667.72
2022-12-23T07:22:46.017Z,98666.13
2022-12-23T07:25:13.551Z,98645.63
2022-12-23T07:27:40.701Z,98666.06
2022-12-23T07:30:09.811Z,98676.22
2022-12-23T07:32:37.027Z,98609.38
2022-12-23T07:35:04.277Z,98628.38
2022-12-23T07:37:31.266Z,98634.72
2022-12-23T07:40:00.023Z,98641.78
2022-12-23T07:42:46.538Z,98635.50
2022-12-23T07:45:14.221Z,98631.94
2022-12-23T07:47:41.730Z,98615.81
2022-12-23T07:50:09.185Z,98602.47
2022-12-23T07:52:36.425Z,98585.19
2022-12-23T07:55:03.892Z,98587.16
2022-12-23T07:57:37.525Z,98593.09
2022-12-23T08:00:14.206Z,98607.97
2022-12-23T08:02:42.487Z,98605.19
2022-12-23T08:05:10.533Z,98611.91
2022-12-23T08:07:38.514Z,98622.19
2022-12-23T08:10:07.388Z,98565.84
2022-12-23T08:12:34.670Z,98594.59
2022-12-23T08:15:01.607Z,98605.22
2022-12-23T08:17:30.249Z,98568.56
2022-12-23T08:19:57.565Z,98588.25
2022-12-23T08:22:24.996Z,98580.38
2022-12-23T08:24:52.567Z,98598.13
2022-12-23T08:27:20.055Z,98591.81
2022-12-23T08:29:47.018Z,98602.72
2022-12-23T08:32:14.256Z,98611.34
2022-12-23T08:34:41.196Z,98602.28
2022-12-23T08:37:08.552Z,98590.47
2022-12-23T08:39:35.586Z,98604.22
2022-12-23T08:42:02.932Z,98623.13
2022-12-23T08:44:31.017Z,98603.81
2022-12-23T08:46:58.013Z,98599.09
2022-12-23T08:49:25.057Z,98632.19
2022-12-23T08:51:52.263Z,98620.41
2022-12-23T08:54:20.403Z,98637.72
2022-12-23T08:56:47.721Z,98632.94
2022-12-23T08:59:19.519Z,98631.00
2022-12-23T09:01:48.580Z,98634.06
2022-12-23T09:04:15.757Z,98613.94
2022-12-23T09:06:43.762Z,98623.50
2022-12-23T09:09:14.364Z,98625.56
2022-12-23T09:11:42.046Z,98622.38
2022-12-23T09:14:10.262Z,98621.91
2022-12-23T09:16:37.704Z,98613.22
2022-12-23T09:19:04.972Z,98635.25
2022-12-23T09:21:32.211Z,98634.50
2022-12-23T09:23:59.291Z,98643.13
2022-12-23T09:26:29.892Z,98633.25
2022-12-23T09:28:57.970Z,98643.91
2022-12-23T09:31:30.649Z,98644.66
2022-12-23T09:34:03.604Z,98633.66
2022-12-23T09:36:30.674Z,98650.19
2022-12-23T09:38:59.005Z,98643.06
2022-12-23T09:41:43.949Z,98631.66
2022-12-23T09:44:41.701Z,98626.09
2022-12-23T09:47:17.089Z,98623.06
2022-12-23T09:50:01.061Z,98635.25
2022-12-23T09:52:49.541Z,98661.16
2022-12-23T09:55:17.874Z,98628.16
2022-12-23T09:58:06.764Z,98633.63
2022-12-23T10:01:05.975Z,98628.97
2022-12-23T10:03:56.743Z,98589.59
2022-12-23T10:06:28.019Z,98599.47
2022-12-23T10:09:01.179Z,98617.25
2022-12-23T10:11:39.839Z,98625.00
2022-12-23T10:14:26.630Z,98612.44
2022-12-23T10:17:01.107Z,98596.25
2022-12-23T10:19:47.646Z,98564.38
2022-12-23T10:22:32.623Z,98576.16
2022-12-23T10:25:03.172Z,98573.38
2022-12-23T10:27:31.942Z,98565.91
2022-12-23T10:30:42.703Z,98555.72
2022-12-23T10:33:15.014Z,98554.78
2022-12-23T10:36:13.906Z,98570.38
2022-12-23T10:39:01.928Z,98561.00
2022-12-23T10:41:55.569Z,98493.28
2022-12-23T10:44:46.148Z,98551.38
2022-12-23T10:47:24.165Z,98519.16
2022-12-23T10:50:14.525Z,98527.06
2022-12-23T10:52:45.398Z,98513.03
2022-12-23T10:55:32.911Z,98542.00
2022-12-23T10:58:18.423Z,98512.91
2022-12-23T11:00:56.394Z,98524.59
2022-12-23T11:03:42.465Z,98511.56
2022-12-23T11:06:12.583Z,98534.00
2022-12-23T11:08:40.692Z,98534.06
2022-12-23T11:11:07.956Z,98544.34
2022-12-23T11:13:41.146Z,98535.59
2022-12-23T11:16:28.627Z,98541.88
2022-12-23T11:19:13.935Z,98533.94
2022-12-23T11:21:58.673Z,98519.81
2022-12-23T11:24:35.461Z,98516.53
2022-12-23T11:27:11.072Z,98538.22
2022-12-23T11:29:44.860Z,98507.16
2022-12-23T11:32:30.364Z,98519.00
2022-12-23T11:34:57.616Z,98522.94
2022-12-23T11:37:41.950Z,98540.59
2022-12-23T11:40:39.551Z,98530.34
2022-12-23T11:43:16.243Z,98518.09
2022-12-23T11:45:43.630Z,98531.19
2022-12-23T11:48:30.387Z,98499.09
2022-12-23T11:51:03.266Z,98505.41
2022-12-23T11:53:31.358Z,98511.44
2022-12-23T11:56:06.991Z,98520.28
2022-12-23T11:59:02.720Z,98493.69
2022-12-23T12:01:29.775Z,98510.91
2022-12-23T12:04:07.740Z,98497.47
2022-12-23T12:06:35.124Z,98509.47
2022-12-23T12:09:05.172Z,98476.03
2022-12-23T12:11:39.792Z,98514.41
2022-12-23T12:14:08.726Z,98476.69
2022-12-23T12:17:02.051Z,98491.63
2022-12-23T12:19:44.716Z,98455.47
2022-12-23T12:22:46.204Z,98454.00
2022-12-23T12:25:26.089Z,98459.38
2022-12-23T12:28:02.830Z,98451.63
2022-12-23T12:30:44.811Z,98419.47
2022-12-23T12:33:36.972Z,98448.03
2022-12-23T12:36:32.969Z,98446.88
2022-12-23T12:39:00.476Z,98459.38
2022-12-23T12:42:05.332Z,98431.75
2022-12-23T12:44:51.514Z,98386.19
2022-12-23T12:47:54.124Z,98422.66
2022-12-23T12:50:32.389Z,98396.44
2022-12-23T12:53:10.210Z,98409.78
2022-12-23T12:55:43.807Z,98411.34
2022-12-23T12:58:22.325Z,98411.78
2022-12-23T13:01:07.316Z,98387.78
2022-12-23T13:03:46.900Z,98410.66
2022-12-23T13:07:07.153Z,98427.88
2022-12-23T13:10:06.845Z,98417.72
2022-12-23T13:12:54.900Z,98405.16
2022-12-23T13:15:44.171Z,98408.41
2022-12-23T13:18:53.767Z,98438.97
2022-12-23T13:21:28.048Z,98423.91
2022-12-23T13:24:23.693Z,98416.88
2022-12-23T13:27:21.582Z,98422.78
2022-12-23T13:30:07.054Z,98456.25
2022-12-23T13:33:17.690Z,98448.25
2022-12-23T13:36:17.281Z,98422.34
2022-12-23T13:39:06.061Z,98429.28
2022-12-23T13:41:39.629Z,98437.94
2022-12-23T13:44:10.731Z,98426.19
2022-12-23T13:47:07.354Z,98430.22
2022-12-23T13:49:40.301Z,98442.66
2022-12-23T13:52:24.312Z,98438.38
2022-12-23T13:55:09.736Z,98461.19
2022-12-23T13:58:05.826Z,98409.47
2022-12-23T14:00:34.486Z,98414.97
2022-12-23T14:03:01.374Z,98430.28
2022-12-23T14:05:41.581Z,98421.63
2022-12-23T14:08:26.464Z,98428.78
2022-12-23T14:11:16.126Z,98446.78
2022-12-23T14:13:50.560Z,98417.88
2022-12-23T14:16:47.848Z,98433.66
2022-12-23T14:19:36.229Z,98436.00
2022-12-23T14:22:33.215Z,98418.47
2022-12-23T14:25:58.883Z,98434.69
2022-12-23T14:29:16.418Z,98452.44
2022-12-23T14:31:53.796Z,98451.66
2022-12-23T14:34:20.639Z,98470.97
2022-12-23T14:37:21.897Z,98478.09
2022-12-23T14:39:50.294Z,98466.63
2022-12-23T14:42:41.979Z,98495.31
2022-12-23T14:45:33.725Z,98482.44
2022-12-23T14:48:01.592Z,98477.03
2022-12-23T14:50:38.424Z,98483.34
2022-12-23T14:53:22.691Z,98485.19
2022-12-23T14:55:52.173Z,98506.94
2022-12-23T14:58:33.919Z,98519.56
2022-12-23T15:01:18.222Z,98499.00
2022-12-23T15:03:57.393Z,98499.78
2022-12-23T15:06:42.763Z,98487.69
2022-12-23T15:09:31.737Z,98488.09
2022-12-23T15:12:02.262Z,98491.16
2022-12-23T15:14:38.241Z,98492.63
2022-12-23T15:17:39.257Z,98491.94
2022-12-23T15:20:21.598Z,98488.25
2022-12-23T15:22:49.638Z,98531.31
2022-12-23T15:25:33.610Z,98507.84
2022-12-23T15:28:03.546Z,98521.16
2022-12-23T15:30:51.114Z,98505.47
2022-12-23T15:36:15.137Z,98510.09
2022-12-23T15:38:42.550Z,98495.50
2022-12-23T15:41:18.604Z,98481.44
2022-12-23T15:43:46.056Z,98500.75
2022-12-23T15:46:29.736Z,98491.31
2022-12-23T15:48:58.009Z,98512.47
2022-12-23T15:52:06.387Z,98514.03
2022-12-23T15:54:38.748Z,98505.38
2022-12-23T15:57:06.202Z,98491.00
2022-12-23T15:59:39.110Z,98487.78
2022-12-23T16:05:27.795Z,98503.81
2022-12-23T16:08:11.743Z,98506.84
2022-12-23T16:10:40.139Z,98503.94
2022-12-23T16:13:20.706Z,98506.69
2022-12-23T16:15:48.155Z,98480.31
2022-12-23T16:18:32.783Z,98500.28
2022-12-23T16:21:04.077Z,98505.44
2022-12-23T16:23:37.331Z,98501.13
2022-12-23T16:26:04.573Z,98505.44
2022-12-23T16:28:50.197Z,98521.16
2022-12-23T16:31:20.330Z,98492.50
2022-12-23T16:33:56.756Z,98536.84
2022-12-23T16:36:26.857Z,98520.00
2022-12-23T16:39:06.821Z,98500.03
2022-12-23T16:41:34.938Z,98474.78
2022-12-23T16:44:02.661Z,98475.78
2022-12-23T16:46:36.978Z,98463.97
2022-12-23T16:49:10.991Z,98464.03
2022-12-23T16:51:39.750Z,98456.94
2022-12-23T16:54:10.120Z,98459.34
2022-12-23T16:56:37.994Z,98480.63
2022-12-23T16:59:05.620Z,98487.63
2022-12-23T17:01:39.386Z,98464.06
2022-12-23T17:04:07.538Z,98492.38
2022-12-23T17:06:35.855Z,98494.75
2022-12-23T17:09:05.178Z,98485.78
2022-12-23T17:11:52.832Z,98497.97
2022-12-23T17:14:25.461Z,98515.28
2022-12-23T17:16:53.332Z,98491.69
2022-12-23T17:19:28.022Z,98497.91
2022-12-23T17:22:02.089Z,98504.28
2022-12-23T17:24:29.424Z,98514.50
2022-12-23T17:26:59.371Z,98504.97
2022-12-23T17:29:26.478Z,98511.50
2022-12-23T17:31:53.688Z,98493.47
2022-12-23T17:34:24.494Z,98506.41
2022-12-23T17:36:52.723Z,98526.91
2022-12-23T17:39:21.436Z,98522.94
2022-12-23T17:41:48.955Z,98540.16
2022-12-23T17:44:18.751Z,98486.91
2022-12-23T17:46:46.899Z,98497.06
2022-12-23T17:49:14.216Z,98505.22
2022-12-23T17:51:42.524Z,98513.50
2022-12-23T17:54:24.657Z,98513.50
2022-12-23T17:59:40.479Z,98489.81
2022-12-23T18:02:32.984Z,98513.47
2022-12-23T18:05:00.448Z,98521.09
2022-12-23T18:07:27.993Z,98510.44
2022-12-23T18:09:55.113Z,98542.75
2022-12-23T18:12:25.397Z,98530.88
2022-12-23T18:14:52.563Z,98517.09
2022-12-23T18:17:19.623Z,98545.78
2022-12-23T18:19:46.587Z,98519.88
2022-12-23T18:22:19.265Z,98538.03
2022-12-23T18:24:51.129Z,98535.59
2022-12-23T18:27:23.988Z,98557.69
2022-12-23T18:29:51.531Z,98568.66
2022-12-23T18:32:23.190Z,98512.53
2022-12-23T18:34:50.236Z,98523.13
2022-12-23T18:37:17.641Z,98542.84
2022-12-23T18:39:45.329Z,98540.50
2022-12-23T18:42:17.114Z,98589.28
2022-12-23T18:44:46.225Z,98577.50
2022-12-23T18:47:13.229Z,98583.06
2022-12-23T18:49:40.606Z,98519.34
2022-12-23T18:52:15.099Z,98548.38
2022-12-23T18:54:42.309Z,98562.63
2022-12-23T18:57:11.112Z,98560.63
2022-12-23T18:59:38.984Z,98578.28
2022-12-23T19:02:06.700Z,98566.47
2022-12-23T19:04:34.057Z,98591.78
2022-12-23T19:07:01.052Z,98612.31
2022-12-23T19:09:28.673Z,98592.56
2022-12-23T19:11:55.653Z,98619.75
2022-12-23T19:14:23.183Z,98609.13
2022-12-23T19:16:52.420Z,98613.84
2022-12-23T19:19:20.508Z,98626.41
2022-12-23T19:21:47.558Z,98607.59
2022-12-23T19:24:14.651Z,98649.34
2022-12-23T19:26:41.644Z,98640.63
2022-12-23T19:29:09.078Z,98611.63
2022-12-23T19:31:36.052Z,98631.28
2022-12-23T19:34:03.078Z,98634.13
2022-12-23T19:36:30.146Z,98621.53
2022-12-23T19:38:58.007Z,98620.34
2022-12-23T19:41:25.507Z,98618.78
2022-12-23T19:43:52.632Z,98607.06
2022-12-23T19:46:19.690Z,98628.22
2022-12-23T19:48:52.405Z,98599.94
2022-12-23T19:51:19.414Z,98603.94
2022-12-23T19:53:50.702Z,98644.03
2022-12-23T19:56:21.146Z,98638.50
2022-12-23T19:58:49.329Z,98622.03
2022-12-23T20:01:24.175Z,98640.19
2022-12-23T20:03:54.044Z,98659.06
2022-12-23T20:06:28.538Z,98611.81
2022-12-23T20:09:00.854Z,98618.06
2022-12-23T20:11:30.820Z,98643.25
2022-12-23T20:13:58.630Z,98600.78
2022-12-23T20:16:26.572Z,98636.25
2022-12-23T20:18:54.279Z,98640.97
2022-12-23T20:21:21.646Z,98642.94
2022-12-23T20:23:49.726Z,98638.66
2022-12-23T20:26:18.953Z,98662.28
2022-12-23T20:28:46.584Z,98651.69
2022-12-23T20:31:19.593Z,98666.31
2022-12-23T20:33:48.050Z,98687.91
2022-12-23T20:36:18.224Z,98656.03
2022-12-23T20:38:47.399Z,98649.81
2022-12-23T20:41:17.863Z,98667.91
2022-12-23T20:43:56.954Z,98690.03
2022-12-23T20:46:32.100Z,98701.84
2022-12-23T20:48:59.072Z,98704.13
2022-12-23T20:51:26.438Z,98694.41
2022-12-23T20:53:59.730Z,98718.47
2022-12-23T20:56:29.168Z,98744.00
2022-12-23T20:59:00.345Z,98738.16
2022-12-23T21:01:30.682Z,98742.19
2022-12-23T21:04:00.677Z,98723.25
2022-12-23T21:06:30.100Z,98718.53
2022-12-23T21:08:59.613Z,98746.50
2022-12-23T21:11:33.434Z,98726.38
2022-12-23T21:14:06.213Z,98710.66
2022-12-23T21:16:36.601Z,98750.88
2022-12-23T21:19:05.360Z,98728.84
2022-12-23T21:21:32.482Z,98741.44
2022-12-23T21:24:04.578Z,98723.69
2022-12-23T21:26:33.815Z,98772.22
2022-12-23T21:29:03.792Z,98754.88
2022-12-23T21:31:34.177Z,98740.69
2022-12-23T21:34:01.718Z,98746.22
2022-12-23T21:36:32.380Z,98752.50
2022-12-23T21:39:00.125Z,98753.31
2022-12-23T21:41:34.247Z,98730.47
2022-12-23T21:44:02.421Z,98738.72
2022-12-23T21:46:32.925Z,98754.88
2022-12-23T21:49:00.427Z,98734.78
2022-12-23T21:51:39.553Z,98719.81
2022-12-23T21:54:09.923Z,98721.75
2022-12-23T21:56:37.798Z,98722.97
2022-12-23T21:59:08.624Z,98718.66
2022-12-23T22:01:35.826Z,98731.25
2022-12-23T22:04:03.213Z,98725.81
2022-12-23T22:06:40.304Z,98725.03
2022-12-23T22:09:08.555Z,98747.84
2022-12-23T22:11:37.074Z,98697.41
2022-12-23T22:14:08.511Z,98721.03
2022-12-23T22:16:36.645Z,98715.47
2022-12-23T22:19:06.623Z,98700.94
2022-12-23T22:21:36.118Z,98697.03
2022-12-23T22:24:03.674Z,98730.50
2022-12-23T22:26:32.936Z,98761.66
2022-12-23T22:29:02.798Z,98755.75
2022-12-23T22:31:47.602Z,98743.91
2022-12-23T22:34:18.923Z,98729.75
2022-12-23T22:36:46.929Z,98702.19
2022-12-23T22:39:20.490Z,98732.13
2022-12-23T22:41:50.481Z,98740.78
2022-12-23T22:44:18.500Z,98712.00
2022-12-23T22:46:45.805Z,98723.50
2022-12-23T22:49:14.606Z,98704.56
2022-12-23T22:51:42.706Z,98724.28
2022-12-23T22:54:09.938Z,98731.00
2022-12-23T22:56:37.671Z,98722.72
2022-12-23T22:59:04.891Z,98758.19
2022-12-23T23:01:36.139Z,98756.25
2022-12-23T23:04:04.703Z,98753.50
2022-12-23T23:06:38.418Z,98763.38
2022-12-23T23:09:08.618Z,98759.00
2022-12-23T23:11:35.976Z,98774.03
2022-12-23T23:14:14.705Z,98759.81
2022-12-23T23:16:42.395Z,98755.88
2022-12-23T23:19:11.359Z,98763.34
2022-12-23T23:21:38.534Z,98782.69
2022-12-23T23:24:06.239Z,98759.81
2022-12-23T23:26:33.309Z,98768.06
2022-12-23T23:29:00.509Z,98811.88
2022-12-23T23:31:43.864Z,98770.06
2022-12-23T23:34:12.975Z,98800.03
2022-12-23T23:36:40.604Z,98796.06
2022-12-23T23:39:08.335Z,98794.13
2022-12-23T23:41:35.978Z,98789.00
2022-12-23T23:44:05.555Z,98817.78
2022-12-23T23:46:33.539Z,98830.00
2022-12-23T23:49:00.799Z,98815.03
2022-12-23T23:51:27.739Z,98793.69
2022-12-23T23:53:55.041Z,98824.06
2022-12-23T23:56:25.802Z,98829.97
2022-12-23T23:58:54.681Z,98835.53
